Accueil
METAR-TAF:

METAR-TAF

Aéroports :

Le Mans, France

Aéroport Le Mans-Arnage

latitude: 47-56N, longitude: 000-12E, altitude: 59 m

Observation

Le bulletin a été fait il y a 39 minutes, à 04:30 UTC
Vent calme
Température 3°C
Humidité 93%
Pression 1024 hPa
Visibilité 10 km ou plus
Quelques nuages à une hauteur de 1300 ft
Ciel couvert à une hauteur de 2500 ft

METAR: LFRM 180430Z AUTO 00000KT 9999 FEW013 OVC025 03/02 Q1024

Heure: 06:09 (05:09 UTC)

Prévision

Le bulletin a été fait il y a 12 heures et 9 minutes, à 17:00 UTC
Prévision valable du 17 à 18 UTC au 18 à 03 UTC
Vent 3 kt de direction variable
Visibilité 10 km ou plus
Nuages fragmentés à une hauteur de 3000 ft

TAF: LFRM 171700Z 1718/1803 VRB03KT 9999 BKN030

Observations et prévisions météorologiques de plus de 4000 aéroports (messages METAR et TAF).

Les stations disponibles sont représentées par des disques jaunes et rouges sur la carte.

Passer la souris dessus pour voir le nom de la station.

Cliquer dessus pour voir les observations et prévisions météorologiques.

Pour changer de carte: cliquez sur les boutons verts avec une croix noire pour zoomer, sur le bouton vert avec un tiret pour effectuer un zoom arrière, ou sur les flèches vertes pour les cartes adjacentes.


METAR-TAF: